Time;durP1;ratioP1;P1;durP2;ratioP2;P2;SDS_P1;SDS_P2;PMS_P1;PMS_P2;Temp;Humidity;BMP_temperature;BMP_pressure;BME280_temperature;BME280_humidity;BME280_pressure;Samples;Min_cycle;Max_cycle;Signal;HPM_P1;HPM_P2
2022/02/08 00:00:05;;;;;;;0.68;0.68;;;;;;;;;;5029575;28;20075;-72
2022/02/08 00:02:34;;;;;;;0.05;0.05;;;;;;;;;;5038980;28;20061;-72
2022/02/08 00:05:00;;;;;;;0.10;0.10;;;;;;;;;;5026289;28;20026;-72
2022/02/08 00:07:28;;;;;;;0.50;0.50;;;;;;;;;;5030211;28;20262;-72
2022/02/08 00:09:54;;;;;;;1.15;1.05;;;;;;;;;;5021649;28;20171;-72
2022/02/08 00:12:20;;;;;;;0.00;0.00;;;;;;;;;;5031363;28;20022;-72
2022/02/08 00:14:48;;;;;;;0.00;0.00;;;;;;;;;;5032358;28;20029;-72
2022/02/08 00:17:13;;;;;;;0.00;0.00;;;;;;;;;;5027174;28;20108;-72
2022/02/08 00:19:39;;;;;;;5.05;0.82;;;;;;;;;;5025159;28;20109;-72
2022/02/08 00:22:05;;;;;;;0.10;0.10;;;;;;;;;;5038078;28;20033;-72
2022/02/08 00:24:32;;;;;;;0.00;0.00;;;;;;;;;;5030241;28;20115;-72
2022/02/08 00:26:58;;;;;;;12.85;2.08;;;;;;;;;;5026883;28;20091;-72
2022/02/08 00:29:24;;;;;;;0.32;0.32;;;;;;;;;;5026013;28;20053;-72
2022/02/08 00:31:51;;;;;;;0.05;0.05;;;;;;;;;;5022406;28;20542;-72
2022/02/08 00:34:17;;;;;;;1.25;0.50;;;;;;;;;;5026570;28;20454;-72
2022/02/08 00:36:43;;;;;;;0.10;0.10;;;;;;;;;;5027018;28;20029;-72
2022/02/08 00:39:09;;;;;;;0.10;0.10;;;;;;;;;;5029528;28;20029;-73
2022/02/08 00:41:36;;;;;;;2.20;0.47;;;;;;;;;;5028525;28;20511;-72
2022/02/08 00:44:11;;;;;;;0.00;0.00;;;;;;;;;;5038841;28;20067;-72
2022/02/08 00:47:25;;;;;;;0.10;0.10;;;;;;;;;;5024659;28;20054;-72
2022/02/08 00:49:32;;;;;;;0.10;0.10;;;;;;;;;;5016174;28;20029;-72
2022/02/08 00:52:06;;;;;;;0.57;0.55;;;;;;;;;;5022929;28;20384;-72
2022/02/08 00:54:32;;;;;;;0.98;0.95;;;;;;;;;;5030177;28;20030;-72
2022/02/08 00:56:58;;;;;;;0.75;0.75;;;;;;;;;;5033813;28;20541;-72
2022/02/08 00:59:24;;;;;;;3.40;1.45;;;;;;;;;;5022288;28;20083;-72
2022/02/08 01:01:50;;;;;;;0.10;0.10;;;;;;;;;;5025365;28;20037;-73
2022/02/08 01:04:17;;;;;;;0.10;0.10;;;;;;;;;;5021005;28;20036;-72
2022/02/08 01:06:43;;;;;;;0.13;0.13;;;;;;;;;;5028543;28;20160;-72
2022/02/08 01:11:39;;;;;;;0.10;0.10;;;;;;;;;;5029445;28;20484;-71
2022/02/08 01:14:06;;;;;;;0.00;0.00;;;;;;;;;;5032651;28;20017;-72
2022/02/08 01:16:32;;;;;;;0.95;0.55;;;;;;;;;;5026365;28;20036;-72
2022/02/08 01:19:00;;;;;;;0.88;0.38;;;;;;;;;;5026087;28;20029;-72
2022/02/08 01:21:25;;;;;;;0.20;0.20;;;;;;;;;;5025689;28;20033;-72
2022/02/08 01:23:52;;;;;;;0.10;0.10;;;;;;;;;;5027937;28;20029;-73
2022/02/08 01:26:19;;;;;;;0.00;0.00;;;;;;;;;;5030792;28;20072;-72
2022/02/08 01:28:54;;;;;;;0.10;0.10;;;;;;;;;;5028126;28;20034;-72
2022/02/08 01:31:21;;;;;;;0.10;0.10;;;;;;;;;;5028580;28;20112;-72
2022/02/08 01:36:49;;;;;;;0.52;0.52;;;;;;;;;;5024004;28;20408;-72
2022/02/08 01:39:25;;;;;;;0.82;0.82;;;;;;;;;;5026412;28;20056;-72
2022/02/08 01:42:13;;;;;;;0.20;0.20;;;;;;;;;;5025874;28;20033;-72
2022/02/08 01:45:03;;;;;;;0.20;0.20;;;;;;;;;;5019189;28;20602;-72
2022/02/08 01:47:28;;;;;;;0.22;0.22;;;;;;;;;;5029057;28;20085;-72
2022/02/08 01:50:16;;;;;;;0.08;0.08;;;;;;;;;;5024902;28;20102;-72
2022/02/08 01:52:41;;;;;;;0.00;0.00;;;;;;;;;;5025121;28;20076;-72
2022/02/08 01:55:09;;;;;;;0.93;0.73;;;;;;;;;;5029330;28;20049;-72
2022/02/08 01:57:36;;;;;;;0.00;0.00;;;;;;;;;;5027159;28;20485;-72
2022/02/08 02:00:02;;;;;;;0.50;0.50;;;;;;;;;;5033660;28;20025;-71
2022/02/08 02:02:28;;;;;;;0.10;0.10;;;;;;;;;;5029526;28;20029;-72
2022/02/08 02:04:54;;;;;;;0.80;0.80;;;;;;;;;;5028613;28;20494;-71
2022/02/08 02:07:20;;;;;;;1.38;0.85;;;;;;;;;;5026100;28;20060;-72
2022/02/08 02:09:46;;;;;;;0.40;0.40;;;;;;;;;;5026682;28;20369;-72
2022/02/08 02:12:13;;;;;;;2.03;1.85;;;;;;;;;;5026870;28;20022;-72
2022/02/08 02:14:40;;;;;;;0.00;0.00;;;;;;;;;;5030509;28;20030;-72
2022/02/08 02:17:08;;;;;;;0.15;0.15;;;;;;;;;;5028851;28;20499;-71
2022/02/08 02:19:34;;;;;;;0.90;0.88;;;;;;;;;;5033091;28;20452;-72
2022/02/08 02:22:01;;;;;;;0.10;0.10;;;;;;;;;;5028178;28;20053;-72
2022/02/08 02:24:27;;;;;;;2.28;1.65;;;;;;;;;;5030870;28;20029;-72
2022/02/08 02:26:56;;;;;;;0.10;0.10;;;;;;;;;;5025577;28;20040;-72
2022/02/08 02:29:22;;;;;;;0.20;0.20;;;;;;;;;;5031189;28;20028;-72
2022/02/08 02:31:48;;;;;;;0.00;0.00;;;;;;;;;;5031491;28;20025;-72
2022/02/08 02:34:17;;;;;;;0.65;0.65;;;;;;;;;;5036276;28;20056;-72
2022/02/08 02:36:44;;;;;;;0.20;0.20;;;;;;;;;;5024469;28;20017;-72
2022/02/08 02:39:10;;;;;;;0.38;0.38;;;;;;;;;;5028205;28;20056;-72
2022/02/08 02:41:36;;;;;;;0.10;0.10;;;;;;;;;;5031664;28;20105;-72
2022/02/08 02:44:07;;;;;;;0.10;0.10;;;;;;;;;;5038388;28;20030;-72
2022/02/08 02:46:33;;;;;;;0.85;0.73;;;;;;;;;;5030826;28;20029;-72
2022/02/08 02:48:59;;;;;;;0.10;0.10;;;;;;;;;;5031751;28;20032;-71
2022/02/08 02:51:25;;;;;;;0.38;0.38;;;;;;;;;;5030651;28;20409;-72
2022/02/08 02:53:51;;;;;;;0.93;0.85;;;;;;;;;;5029950;28;20046;-71
2022/02/08 02:56:17;;;;;;;0.00;0.00;;;;;;;;;;5030277;28;20069;-72
2022/02/08 02:58:43;;;;;;;0.10;0.10;;;;;;;;;;5029368;28;20071;-72
2022/02/08 03:01:23;;;;;;;0.10;0.10;;;;;;;;;;5032778;28;20025;-71
2022/02/08 03:17:52;;;;;;;0.50;0.50;;;;;;;;;;5031707;28;20036;-71
2022/02/08 03:20:18;;;;;;;16.98;1.38;;;;;;;;;;5032110;28;20137;-72
2022/02/08 03:22:44;;;;;;;0.10;0.10;;;;;;;;;;5028600;28;20650;-72
2022/02/08 03:25:10;;;;;;;0.10;0.10;;;;;;;;;;5032602;28;20029;-72
2022/02/08 03:27:37;;;;;;;0.10;0.10;;;;;;;;;;5028587;28;20037;-72
2022/02/08 03:30:03;;;;;;;1.15;1.05;;;;;;;;;;5027236;28;20116;-72
2022/02/08 03:32:29;;;;;;;3.83;0.90;;;;;;;;;;5029918;28;20048;-72
2022/02/08 03:34:56;;;;;;;0.10;0.10;;;;;;;;;;5025916;28;20029;-72
2022/02/08 03:37:22;;;;;;;0.65;0.65;;;;;;;;;;5027367;28;20032;-71
2022/02/08 03:39:58;;;;;;;0.43;0.43;;;;;;;;;;5031007;28;20106;-72
2022/02/08 03:42:31;;;;;;;0.30;0.30;;;;;;;;;;5032717;28;20030;-71
2022/02/08 03:44:59;;;;;;;0.30;0.30;;;;;;;;;;5027343;28;20477;-72
2022/02/08 03:47:25;;;;;;;0.00;0.00;;;;;;;;;;5026175;28;20025;-71
2022/02/08 03:49:51;;;;;;;0.38;0.38;;;;;;;;;;5033734;28;20029;-71
2022/02/08 03:52:18;;;;;;;0.10;0.10;;;;;;;;;;5031643;28;20037;-73
2022/02/08 03:54:44;;;;;;;0.30;0.30;;;;;;;;;;5030951;28;20049;-72
2022/02/08 03:57:11;;;;;;;0.70;0.70;;;;;;;;;;5037647;28;20489;-72
2022/02/08 03:59:38;;;;;;;3.65;1.52;;;;;;;;;;5030213;28;20079;-72
2022/02/08 04:04:54;;;;;;;3.50;1.85;;;;;;;;;;5032222;28;20035;-72
2022/02/08 04:07:57;;;;;;;;;;;;;;;;;;5034659;28;20034;-72
2022/02/08 04:10:20;;;;;;;0.35;0.35;;;;;;;;;;5021009;28;19913;-72
2022/02/08 04:18:18;;;;;;;0.43;0.43;;;;;;;;;;5029718;28;20536;-72
2022/02/08 04:32:10;;;;;;;0.10;0.10;;;;;;;;;;5025693;28;20435;-72
2022/02/08 04:34:58;;;;;;;0.10;0.10;;;;;;;;;;5035999;28;20025;-72
2022/02/08 04:42:39;;;;;;;0.00;0.00;;;;;;;;;;5025923;28;20033;-72
2022/02/08 04:45:18;;;;;;;0.10;0.10;;;;;;;;;;5027385;28;20029;-72
2022/02/08 04:50:35;;;;;;;0.15;0.15;;;;;;;;;;5009398;28;20136;-72
2022/02/08 04:53:09;;;;;;;0.10;0.10;;;;;;;;;;5028559;28;20033;-72
2022/02/08 04:56:07;;;;;;;5.18;2.08;;;;;;;;;;5028954;28;20025;-72
2022/02/08 04:58:42;;;;;;;0.65;0.65;;;;;;;;;;5030210;28;20028;-72
2022/02/08 05:01:16;;;;;;;0.20;0.20;;;;;;;;;;5030300;28;20033;-72
2022/02/08 05:37:24;;;;;;;0.20;0.20;;;;;;;;;;4988339;28;20035;-72
2022/02/08 05:45:13;;;;;;;0.05;0.05;;;;;;;;;;5034191;28;20028;-72
2022/02/08 05:47:43;;;;;;;0.10;0.10;;;;;;;;;;5031434;28;20029;-72
2022/02/08 05:50:23;;;;;;;0.50;0.50;;;;;;;;;;5029020;28;20037;-72
2022/02/08 05:53:02;;;;;;;0.10;0.10;;;;;;;;;;5030052;28;20065;-72
2022/02/08 05:55:28;;;;;;;0.10;0.10;;;;;;;;;;5030625;28;20025;-72
2022/02/08 05:57:54;;;;;;;0.10;0.10;;;;;;;;;;5035626;28;20052;-72
2022/02/08 06:00:26;;;;;;;0.30;0.30;;;;;;;;;;5028047;28;20047;-72
2022/02/08 06:02:52;;;;;;;;;;;;;;;;;;5034143;28;20034;-72
2022/02/08 06:05:19;;;;;;;0.25;0.25;;;;;;;;;;5033041;28;19912;-71
2022/02/08 06:07:46;;;;;;;2.63;0.50;;;;;;;;;;5030517;28;20033;-71
2022/02/08 06:10:12;;;;;;;0.17;0.17;;;;;;;;;;5033202;28;20532;-71
2022/02/08 06:12:45;;;;;;;0.00;0.00;;;;;;;;;;5029069;28;20041;-72
2022/02/08 06:15:13;;;;;;;2.38;1.67;;;;;;;;;;5032739;28;20017;-72
2022/02/08 06:17:39;;;;;;;0.10;0.10;;;;;;;;;;5036780;28;20057;-71
2022/02/08 06:20:06;;;;;;;0.65;0.32;;;;;;;;;;5028872;28;20061;-70
2022/02/08 06:22:32;;;;;;;0.60;0.60;;;;;;;;;;5027049;28;20512;-70
2022/02/08 06:24:58;;;;;;;0.82;0.52;;;;;;;;;;5029499;28;20487;-70
2022/02/08 06:27:29;;;;;;;0.10;0.10;;;;;;;;;;5030339;28;20045;-72
2022/02/08 06:29:56;;;;;;;0.43;0.43;;;;;;;;;;5029773;28;20037;-70
2022/02/08 06:32:22;;;;;;;0.30;0.30;;;;;;;;;;5029257;28;20096;-70
2022/02/08 06:34:49;;;;;;;0.75;0.75;;;;;;;;;;5026979;28;20067;-70
2022/02/08 06:37:18;;;;;;;1.48;1.38;;;;;;;;;;5030087;28;20071;-70
2022/02/08 06:39:43;;;;;;;0.30;0.30;;;;;;;;;;5028986;28;20457;-70
2022/02/08 06:42:10;;;;;;;0.52;0.52;;;;;;;;;;5030376;28;20086;-71
2022/02/08 06:44:36;;;;;;;1.77;0.80;;;;;;;;;;5033314;28;20017;-70
2022/02/08 06:47:03;;;;;;;0.10;0.10;;;;;;;;;;5033283;28;20029;-70
2022/02/08 06:49:28;;;;;;;0.20;0.20;;;;;;;;;;5022174;28;20022;-70
2022/02/08 06:51:54;;;;;;;0.55;0.55;;;;;;;;;;5037477;28;20018;-74
2022/02/08 06:57:20;;;;;;;0.30;0.30;;;;;;;;;;5013744;28;20026;-72
2022/02/08 06:59:55;;;;;;;2.92;0.70;;;;;;;;;;5028989;28;20068;-72
2022/02/08 07:02:21;;;;;;;0.15;0.15;;;;;;;;;;5035598;28;20141;-72
2022/02/08 07:04:47;;;;;;;0.45;0.45;;;;;;;;;;5026963;28;20067;-71
2022/02/08 07:07:16;;;;;;;0.60;0.60;;;;;;;;;;5033304;28;20022;-72
2022/02/08 07:09:43;;;;;;;0.55;0.55;;;;;;;;;;5030204;28;20122;-72
2022/02/08 07:12:09;;;;;;;0.52;0.52;;;;;;;;;;5031686;28;20056;-72
2022/02/08 07:14:35;;;;;;;0.32;0.32;;;;;;;;;;5028920;28;20688;-71
2022/02/08 07:17:01;;;;;;;0.32;0.32;;;;;;;;;;5027932;28;20032;-72
2022/02/08 07:19:26;;;;;;;1.30;0.93;;;;;;;;;;5031016;28;20029;-72
2022/02/08 07:21:52;;;;;;;0.32;0.32;;;;;;;;;;5035906;28;20034;-72
2022/02/08 07:24:19;;;;;;;0.20;0.20;;;;;;;;;;5032879;28;20032;-72
2022/02/08 07:26:46;;;;;;;0.00;0.00;;;;;;;;;;5035369;28;20071;-72
2022/02/08 07:29:12;;;;;;;0.80;0.80;;;;;;;;;;5029449;28;20436;-72
2022/02/08 07:31:47;;;;;;;0.35;0.35;;;;;;;;;;5030052;28;20491;-72
2022/02/08 07:34:20;;;;;;;0.10;0.10;;;;;;;;;;5027289;28;20063;-72
2022/02/08 07:37:05;;;;;;;0.70;0.70;;;;;;;;;;5025948;28;20021;-73
2022/02/08 07:39:47;;;;;;;0.20;0.20;;;;;;;;;;5016433;28;20033;-72
2022/02/08 07:42:13;;;;;;;1.55;0.50;;;;;;;;;;5041979;28;20107;-72
2022/02/08 07:44:39;;;;;;;0.73;0.68;;;;;;;;;;5027130;28;20164;-71
2022/02/08 07:47:05;;;;;;;0.00;0.00;;;;;;;;;;5030574;28;20496;-72
2022/02/08 07:49:33;;;;;;;0.10;0.10;;;;;;;;;;5028006;28;20022;-72
2022/02/08 07:51:59;;;;;;;3.47;0.65;;;;;;;;;;5027016;28;22172;-72
2022/02/08 07:54:25;;;;;;;0.20;0.20;;;;;;;;;;5022666;28;20079;-72
2022/02/08 07:56:51;;;;;;;0.30;0.30;;;;;;;;;;5031240;28;20427;-71
2022/02/08 07:59:17;;;;;;;0.00;0.00;;;;;;;;;;5029067;28;20416;-72
2022/02/08 08:01:43;;;;;;;6.18;0.63;;;;;;;;;;5028118;28;20040;-71
2022/02/08 08:04:09;;;;;;;0.30;0.20;;;;;;;;;;5031537;28;20044;-72
2022/02/08 08:06:35;;;;;;;0.40;0.40;;;;;;;;;;5030295;28;20025;-72
2022/02/08 08:09:01;;;;;;;0.43;0.43;;;;;;;;;;5025321;28;20465;-72
2022/02/08 08:11:35;;;;;;;0.20;0.20;;;;;;;;;;5026643;28;20036;-72
2022/02/08 08:14:02;;;;;;;0.50;0.30;;;;;;;;;;5020990;28;20026;-71
2022/02/08 08:16:43;;;;;;;2.75;0.85;;;;;;;;;;5026672;28;20029;-71
2022/02/08 08:21:40;;;;;;;0.73;0.73;;;;;;;;;;5033375;28;20064;-70
2022/02/08 08:24:08;;;;;;;0.73;0.73;;;;;;;;;;5029689;28;20045;-70
2022/02/08 08:26:34;;;;;;;2.75;1.30;;;;;;;;;;5021209;28;20060;-70
2022/02/08 08:29:00;;;;;;;0.20;0.20;;;;;;;;;;5032319;28;20028;-71
2022/02/08 08:31:26;;;;;;;0.15;0.15;;;;;;;;;;5027729;28;20025;-71
2022/02/08 08:33:52;;;;;;;0.30;0.30;;;;;;;;;;5030099;28;20613;-70
2022/02/08 08:36:19;;;;;;;0.38;0.38;;;;;;;;;;5027201;28;20112;-70
2022/02/08 08:38:50;;;;;;;0.20;0.20;;;;;;;;;;5024305;28;20107;-71
2022/02/08 08:49:50;;;;;;;0.52;0.45;;;;;;;;;;5031147;28;20044;-70
2022/02/08 08:52:29;;;;;;;0.70;0.70;;;;;;;;;;5021792;28;20111;-70
2022/02/08 08:54:55;;;;;;;0.28;0.28;;;;;;;;;;5027033;28;20480;-70
2022/02/08 08:57:21;;;;;;;0.50;0.50;;;;;;;;;;5035182;28;20029;-70
2022/02/08 08:59:47;;;;;;;0.28;0.28;;;;;;;;;;5030791;28;20075;-69
2022/02/08 09:02:13;;;;;;;1.05;1.02;;;;;;;;;;5030572;28;20028;-72
2022/02/08 09:04:43;;;;;;;0.10;0.10;;;;;;;;;;5020688;28;20033;-69
2022/02/08 09:07:09;;;;;;;0.40;0.40;;;;;;;;;;5013373;28;20120;-70
2022/02/08 09:09:39;;;;;;;0.08;0.08;;;;;;;;;;5021534;28;20021;-70
2022/02/08 09:12:17;;;;;;;0.15;0.15;;;;;;;;;;5013145;28;20039;-70
2022/02/08 09:15:02;;;;;;;0.00;0.00;;;;;;;;;;5019264;28;20087;-69
2022/02/08 09:20:28;;;;;;;4.97;1.05;;;;;;;;;;5027077;28;20041;-70
2022/02/08 09:23:21;;;;;;;0.20;0.20;;;;;;;;;;5022185;28;20795;-71
2022/02/08 09:31:02;;;;;;;0.45;0.35;;;;;;;;;;5019008;28;20040;-72
2022/02/08 09:33:28;;;;;;;0.00;0.00;;;;;;;;;;5025297;28;20032;-71
2022/02/08 09:35:54;;;;;;;0.80;0.45;;;;;;;;;;5024716;28;20025;-70
2022/02/08 09:38:20;;;;;;;0.20;0.20;;;;;;;;;;5020354;28;20026;-72
2022/02/08 09:40:47;;;;;;;0.47;0.47;;;;;;;;;;5024266;28;20024;-71
2022/02/08 09:43:14;;;;;;;0.95;0.50;;;;;;;;;;5024652;28;20033;-70
2022/02/08 09:45:45;;;;;;;0.10;0.10;;;;;;;;;;5026516;28;20087;-70
2022/02/08 09:48:19;;;;;;;0.28;0.28;;;;;;;;;;5033335;28;20039;-70
2022/02/08 09:50:47;;;;;;;0.28;0.28;;;;;;;;;;5026536;28;20061;-71
2022/02/08 09:53:19;;;;;;;0.45;0.30;;;;;;;;;;5025748;28;20048;-69
2022/02/08 09:55:45;;;;;;;0.93;0.88;;;;;;;;;;5025248;28;20556;-69
2022/02/08 09:58:12;;;;;;;0.28;0.28;;;;;;;;;;5026335;28;20107;-70
2022/02/08 10:00:41;;;;;;;1.00;0.50;;;;;;;;;;5028074;28;20053;-70
2022/02/08 10:03:11;;;;;;;0.85;0.85;;;;;;;;;;5023067;28;20029;-71
2022/02/08 10:05:53;;;;;;;0.20;0.20;;;;;;;;;;5028200;28;20049;-71
2022/02/08 10:08:19;;;;;;;0.77;0.63;;;;;;;;;;5026552;28;20040;-70
2022/02/08 10:10:46;;;;;;;2.30;1.27;;;;;;;;;;5025575;28;20033;-71
2022/02/08 10:13:42;;;;;;;0.28;0.28;;;;;;;;;;5032593;28;20029;-71
2022/02/08 10:21:48;;;;;;;1.75;1.58;;;;;;;;;;5033007;28;20400;-71
2022/02/08 10:24:15;;;;;;;0.15;0.15;;;;;;;;;;5028834;28;20029;-71
2022/02/08 10:29:16;;;;;;;0.35;0.22;;;;;;;;;;5026352;28;20037;-71
2022/02/08 10:40:02;;;;;;;0.10;0.10;;;;;;;;;;5021531;28;20052;-70
2022/02/08 10:42:29;;;;;;;0.40;0.40;;;;;;;;;;5023976;28;20468;-71
2022/02/08 10:44:56;;;;;;;0.10;0.10;;;;;;;;;;5028964;28;20029;-72
2022/02/08 10:47:32;;;;;;;0.45;0.45;;;;;;;;;;5028231;28;20025;-70
2022/02/08 10:49:58;;;;;;;0.35;0.35;;;;;;;;;;5026771;28;20063;-71
2022/02/08 10:52:26;;;;;;;0.10;0.10;;;;;;;;;;5017101;28;20069;-72
2022/02/08 10:54:52;;;;;;;0.10;0.10;;;;;;;;;;5025201;28;20071;-76
2022/02/08 10:57:28;;;;;;;0.10;0.10;;;;;;;;;;5024693;28;20473;-72
2022/02/08 10:59:59;;;;;;;0.35;0.35;;;;;;;;;;5025257;28;20120;-69
2022/02/08 11:02:34;;;;;;;0.55;0.55;;;;;;;;;;5027352;28;20047;-69
2022/02/08 11:05:11;;;;;;;2.05;0.95;;;;;;;;;;5023513;28;20034;-69
2022/02/08 11:10:32;;;;;;;0.08;0.08;;;;;;;;;;5032374;28;20427;-70
2022/02/08 11:15:43;;;;;;;0.38;0.38;;;;;;;;;;5035817;28;20427;-70
2022/02/08 11:18:37;;;;;;;1.85;0.55;;;;;;;;;;5027778;28;20654;-70
2022/02/08 11:24:11;;;;;;;1.13;0.25;;;;;;;;;;5034877;28;20037;-70
2022/02/08 11:26:40;;;;;;;0.80;0.57;;;;;;;;;;5027011;28;20040;-70
2022/02/08 11:29:16;;;;;;;0.47;0.47;;;;;;;;;;5029932;28;20044;-70
2022/02/08 11:31:49;;;;;;;0.05;0.05;;;;;;;;;;5029491;28;20017;-69
2022/02/08 11:46:13;;;;;;;0.20;0.20;;;;;;;;;;5024755;28;20071;-73
2022/02/08 12:05:08;;;;;;;2.40;1.20;;;;;;;;;;5016573;28;20039;-70
2022/02/08 12:07:38;;;;;;;0.25;0.25;;;;;;;;;;5012101;28;20029;-70
2022/02/08 12:10:18;;;;;;;0.60;0.60;;;;;;;;;;5018032;28;20611;-70
2022/02/08 12:30:03;;;;;;;0.57;0.57;;;;;;;;;;5031143;28;20055;-70
2022/02/08 12:52:15;;;;;;;0.30;0.30;;;;;;;;;;5026553;28;20064;-73
2022/02/08 12:54:42;;;;;;;0.52;0.52;;;;;;;;;;5037055;28;20677;-74
2022/02/08 12:57:18;;;;;;;0.20;0.20;;;;;;;;;;5029074;28;20400;-73
2022/02/08 13:00:07;;;;;;;0.32;0.32;;;;;;;;;;5025631;28;20029;-74
2022/02/08 13:19:44;;;;;;;0.63;0.63;;;;;;;;;;5027387;28;20040;-74
2022/02/08 14:05:51;;;;;;;0.65;0.65;;;;;;;;;;5044171;28;20065;-73
2022/02/08 14:13:51;;;;;;;1.05;0.95;;;;;;;;;;5021240;28;20141;-71
2022/02/08 14:19:22;;;;;;;0.47;0.43;;;;;;;;;;5020796;28;20032;-70
2022/02/08 14:29:49;;;;;;;0.65;0.52;;;;;;;;;;5021345;28;20396;-70
2022/02/08 14:32:22;;;;;;;0.30;0.30;;;;;;;;;;5027961;28;20048;-70
2022/02/08 14:48:51;;;;;;;0.40;0.40;;;;;;;;;;5018477;28;20021;-70
2022/02/08 15:09:57;;;;;;;1.08;1.00;;;;;;;;;;5004071;28;20034;-69
2022/02/08 15:12:25;;;;;;;1.90;0.90;;;;;;;;;;5005533;28;20183;-70
2022/02/08 15:14:55;;;;;;;1.08;0.98;;;;;;;;;;5005131;28;20034;-70
2022/02/08 15:17:21;;;;;;;0.50;0.50;;;;;;;;;;5005970;28;20036;-69
2022/02/08 15:19:49;;;;;;;0.20;0.20;;;;;;;;;;5004338;28;20532;-70
2022/02/08 15:22:17;;;;;;;0.65;0.65;;;;;;;;;;5004711;28;20026;-70
2022/02/08 15:24:43;;;;;;;13.02;0.98;;;;;;;;;;4999568;28;20122;-70
2022/02/08 15:27:11;;;;;;;0.35;0.28;;;;;;;;;;4994160;28;20535;-70
2022/02/08 15:29:37;;;;;;;0.75;0.40;;;;;;;;;;4999567;28;20117;-70
2022/02/08 15:32:07;;;;;;;0.43;0.43;;;;;;;;;;5008608;28;20054;-70
2022/02/08 15:34:33;;;;;;;3.20;0.75;;;;;;;;;;5006438;28;20033;-70
2022/02/08 15:36:58;;;;;;;0.00;0.00;;;;;;;;;;5003273;28;20026;-69
2022/02/08 15:39:24;;;;;;;1.25;0.65;;;;;;;;;;5004516;28;20041;-73
2022/02/08 15:41:51;;;;;;;0.55;0.55;;;;;;;;;;5002242;28;20642;-72
2022/02/08 15:44:21;;;;;;;0.20;0.20;;;;;;;;;;5007243;28;20060;-73
2022/02/08 15:46:47;;;;;;;0.63;0.63;;;;;;;;;;5002757;28;20041;-72
2022/02/08 15:49:14;;;;;;;0.50;0.50;;;;;;;;;;5011200;28;20057;-72
2022/02/08 15:51:44;;;;;;;0.03;0.03;;;;;;;;;;5006391;28;20030;-71
2022/02/08 15:57:06;;;;;;;0.20;0.20;;;;;;;;;;5024846;28;20033;-71
2022/02/08 16:00:21;;;;;;;0.73;0.57;;;;;;;;;;5021603;28;20396;-71
2022/02/08 16:05:26;;;;;;;0.20;0.20;;;;;;;;;;5019561;28;20041;-77
2022/02/08 16:07:58;;;;;;;0.20;0.20;;;;;;;;;;5026570;28;20026;-75
2022/02/08 16:10:33;;;;;;;0.10;0.10;;;;;;;;;;5028807;28;20029;-72
2022/02/08 16:18:40;;;;;;;0.68;0.40;;;;;;;;;;5028410;28;20039;-72
2022/02/08 16:21:31;;;;;;;0.10;0.10;;;;;;;;;;5028345;28;20033;-72
2022/02/08 16:24:04;;;;;;;0.75;0.75;;;;;;;;;;5029040;28;20480;-74
2022/02/08 16:26:59;;;;;;;0.25;0.25;;;;;;;;;;5025539;28;20040;-71
2022/02/08 16:30:05;;;;;;;0.00;0.00;;;;;;;;;;5026721;28;20037;-74
2022/02/08 16:32:43;;;;;;;1.10;0.85;;;;;;;;;;5021124;28;20488;-75
2022/02/08 16:46:34;;;;;;;3.83;1.23;;;;;;;;;;5027858;28;20032;-75
2022/02/08 16:49:26;;;;;;;2.13;1.48;;;;;;;;;;5027438;28;20476;-76
2022/02/08 16:54:55;;;;;;;0.20;0.20;;;;;;;;;;5028511;28;20660;-73
2022/02/08 16:57:34;;;;;;;0.28;0.28;;;;;;;;;;5026853;28;20025;-74
2022/02/08 17:00:04;;;;;;;0.55;0.55;;;;;;;;;;5030511;28;20053;-75
2022/02/08 17:02:37;;;;;;;1.35;1.08;;;;;;;;;;5027076;28;20040;-74
2022/02/08 17:05:03;;;;;;;4.25;0.93;;;;;;;;;;5028810;28;20076;-75
2022/02/08 17:07:36;;;;;;;0.22;0.20;;;;;;;;;;5028235;28;20109;-74
2022/02/08 17:10:04;;;;;;;11.75;2.50;;;;;;;;;;5023967;28;20037;-76
2022/02/08 17:12:39;;;;;;;1.52;0.82;;;;;;;;;;5035315;28;20024;-76
2022/02/08 17:15:37;;;;;;;0.43;0.43;;;;;;;;;;5027556;28;20025;-77
2022/02/08 17:45:21;;;;;;;1.27;0.70;;;;;;;;;;5021439;28;20048;-73
2022/02/08 17:47:49;;;;;;;0.10;0.10;;;;;;;;;;5016650;28;20161;-74
2022/02/08 17:50:18;;;;;;;0.32;0.32;;;;;;;;;;5015938;28;20018;-75
2022/02/08 17:52:46;;;;;;;0.65;0.65;;;;;;;;;;5016387;28;20476;-75
2022/02/08 17:55:12;;;;;;;0.00;0.00;;;;;;;;;;5017284;28;20033;-74
2022/02/08 17:57:38;;;;;;;0.55;0.55;;;;;;;;;;5006735;28;20026;-75
2022/02/08 18:00:06;;;;;;;0.28;0.28;;;;;;;;;;5012199;28;20757;-74
2022/02/08 18:02:32;;;;;;;0.40;0.40;;;;;;;;;;5008920;28;20037;-75
2022/02/08 18:05:01;;;;;;;0.03;0.03;;;;;;;;;;5019684;28;20025;-74
2022/02/08 18:07:27;;;;;;;0.30;0.30;;;;;;;;;;5010707;28;20037;-74
2022/02/08 18:09:54;;;;;;;0.10;0.10;;;;;;;;;;5019434;28;20037;-75
2022/02/08 18:12:23;;;;;;;0.17;0.17;;;;;;;;;;5018663;28;20493;-74
2022/02/08 18:14:54;;;;;;;0.55;0.55;;;;;;;;;;5012564;28;20038;-74
2022/02/08 18:17:26;;;;;;;;;;;;;;;;;;5012321;28;20022;-74
2022/02/08 18:20:02;;;;;;;0.28;0.28;;;;;;;;;;5019105;28;19909;-74
2022/02/08 18:22:37;;;;;;;1.08;0.93;;;;;;;;;;5014940;28;20117;-73
2022/02/08 18:57:20;;;;;;;0.45;0.45;;;;;;;;;;5028797;28;20037;-74
2022/02/08 19:06:59;;;;;;;0.40;0.40;;;;;;;;;;5020489;28;20127;-74
2022/02/08 19:23:52;;;;;;;0.68;0.68;;;;;;;;;;5022532;28;20041;-74
2022/02/08 19:26:18;;;;;;;0.60;0.60;;;;;;;;;;5011071;28;20429;-74
2022/02/08 19:28:44;;;;;;;0.25;0.25;;;;;;;;;;5019626;28;20029;-75
2022/02/08 19:31:10;;;;;;;0.75;0.73;;;;;;;;;;5017848;28;20188;-74
2022/02/08 19:33:36;;;;;;;0.43;0.43;;;;;;;;;;5022304;28;20116;-74
2022/02/08 19:36:11;;;;;;;0.43;0.43;;;;;;;;;;5013737;28;20472;-74
2022/02/08 19:38:41;;;;;;;1.08;0.57;;;;;;;;;;5015988;28;20044;-75
2022/02/08 19:41:07;;;;;;;0.30;0.30;;;;;;;;;;5016658;28;20033;-73
2022/02/08 19:43:34;;;;;;;0.30;0.30;;;;;;;;;;5022292;28;20029;-74
2022/02/08 19:46:00;;;;;;;0.10;0.10;;;;;;;;;;5026653;28;20049;-74
2022/02/08 19:48:35;;;;;;;1.17;1.10;;;;;;;;;;5018103;28;20033;-74
2022/02/08 19:51:01;;;;;;;0.40;0.40;;;;;;;;;;5020225;28;20029;-74
2022/02/08 19:53:30;;;;;;;0.32;0.32;;;;;;;;;;5020413;28;20092;-74
2022/02/08 19:56:19;;;;;;;0.75;0.75;;;;;;;;;;5014199;28;20029;-74
2022/02/08 19:58:48;;;;;;;0.22;0.22;;;;;;;;;;5020334;28;20033;-74
2022/02/08 20:01:21;;;;;;;0.35;0.35;;;;;;;;;;5020715;28;20036;-75
2022/02/08 20:04:22;;;;;;;0.10;0.10;;;;;;;;;;5012695;28;20449;-75
2022/02/08 20:06:39;;;;;;;0.10;0.10;;;;;;;;;;5025672;28;20045;-75
2022/02/08 20:09:07;;;;;;;0.45;0.45;;;;;;;;;;5015619;28;20112;-74
2022/02/08 20:11:32;;;;;;;0.30;0.30;;;;;;;;;;5023675;28;20025;-75
2022/02/08 20:13:59;;;;;;;1.23;0.85;;;;;;;;;;5018725;28;20480;-75
2022/02/08 20:16:27;;;;;;;2.30;0.47;;;;;;;;;;5018665;28;20067;-75
2022/02/08 20:18:55;;;;;;;0.43;0.43;;;;;;;;;;5020129;28;20021;-75
2022/02/08 20:21:23;;;;;;;0.52;0.52;;;;;;;;;;5015592;28;20022;-75
2022/02/08 20:23:49;;;;;;;0.25;0.25;;;;;;;;;;5020911;28;20032;-74
2022/02/08 20:26:15;;;;;;;0.10;0.10;;;;;;;;;;5022098;28;20028;-75
2022/02/08 20:28:53;;;;;;;1.02;0.98;;;;;;;;;;5022231;28;20622;-75
2022/02/08 20:31:19;;;;;;;0.68;0.40;;;;;;;;;;5024360;28;20037;-75
2022/02/08 20:33:46;;;;;;;0.25;0.25;;;;;;;;;;5015826;28;20052;-75
2022/02/08 20:36:12;;;;;;;1.00;0.45;;;;;;;;;;5021533;28;20029;-74
2022/02/08 20:38:38;;;;;;;0.40;0.40;;;;;;;;;;5026881;28;20063;-75
2022/02/08 20:41:04;;;;;;;1.08;0.43;;;;;;;;;;5024840;28;20040;-75
2022/02/08 20:43:36;;;;;;;0.17;0.17;;;;;;;;;;5020885;28;20108;-75
2022/02/08 20:46:05;;;;;;;0.22;0.22;;;;;;;;;;5029869;28;20010;-75
2022/02/08 20:48:31;;;;;;;0.43;0.43;;;;;;;;;;5024044;28;20047;-77
2022/02/08 20:51:02;;;;;;;0.10;0.10;;;;;;;;;;5021610;28;20022;-75
2022/02/08 20:53:51;;;;;;;0.32;0.32;;;;;;;;;;5022801;28;20204;-75
2022/02/08 20:56:27;;;;;;;0.45;0.45;;;;;;;;;;5026633;28;20702;-75
2022/02/08 21:01:20;;;;;;;0.15;0.15;;;;;;;;;;5022384;28;20033;-75
2022/02/08 21:06:21;;;;;;;0.30;0.20;;;;;;;;;;5016363;28;20496;-75
2022/02/08 21:08:47;;;;;;;0.52;0.50;;;;;;;;;;5022031;28;20033;-76
2022/02/08 21:11:13;;;;;;;0.60;0.60;;;;;;;;;;5021328;28;20370;-75
2022/02/08 21:13:47;;;;;;;0.40;0.40;;;;;;;;;;5035168;28;20101;-75
2022/02/08 21:16:15;;;;;;;0.38;0.38;;;;;;;;;;5017592;28;20108;-75
2022/02/08 21:18:41;;;;;;;0.73;0.60;;;;;;;;;;5018010;28;20025;-75
2022/02/08 21:21:07;;;;;;;1.13;1.10;;;;;;;;;;5019570;28;20079;-75
2022/02/08 21:23:34;;;;;;;0.52;0.52;;;;;;;;;;5024993;28;20049;-75
2022/02/08 21:26:02;;;;;;;0.28;0.28;;;;;;;;;;5026118;28;20030;-75
2022/02/08 21:49:55;;;;;;;1.02;1.00;;;;;;;;;;5018351;28;20049;-72
2022/02/08 21:52:46;;;;;;;0.70;0.50;;;;;;;;;;5024391;28;20050;-72
2022/02/08 21:55:13;;;;;;;0.28;0.28;;;;;;;;;;5012347;28;20389;-73
2022/02/08 21:57:51;;;;;;;0.15;0.15;;;;;;;;;;5012484;28;20510;-74
2022/02/08 22:00:19;;;;;;;0.15;0.15;;;;;;;;;;5024012;28;20496;-74
2022/02/08 22:02:45;;;;;;;0.50;0.50;;;;;;;;;;5020800;28;20076;-74
2022/02/08 22:05:11;;;;;;;1.02;1.00;;;;;;;;;;5019197;28;20132;-73
2022/02/08 22:07:37;;;;;;;0.10;0.10;;;;;;;;;;5016296;28;20026;-73
2022/02/08 22:10:11;;;;;;;1.33;0.43;;;;;;;;;;5027470;28;20041;-74
2022/02/08 22:21:01;;;;;;;1.63;1.48;;;;;;;;;;5025228;28;20120;-74
2022/02/08 22:23:35;;;;;;;1.20;1.10;;;;;;;;;;5031019;28;20511;-74
2022/02/08 22:29:11;;;;;;;1.67;1.58;;;;;;;;;;5026395;28;20493;-74
2022/02/08 22:31:45;;;;;;;2.53;1.40;;;;;;;;;;5017040;28;20511;-74